Impacts METAR Board
IDs:

KCFD - Bryan/Coulter Fld, TX, US

Updated at: 1300 UTC 20 Oct 2021
Potential Impact None Slight Moderate High
Time 20/01Z 20/02Z 20/03Z 20/04Z 20/05Z 20/06Z 20/07Z 20/08Z 20/09Z 20/10Z 20/11Z 20/12Z 20/13Z
Temp71 68 69 69 67 66 64 65 63 61 60 59 60
Dewpt61 62 64 65 66 66 64 65 63 61 60 59 60
Altim30.03 30.05 30.07 30.08 30.08 30.08 30.08 30.08 30.08 30.08 30.10 30.10 30.11
VIS10 10 10 10 10 10 10 10 5 1.25 5 3 4
CIG-- -- -- -- -- -- -- -- -- 13 11 -- --
CoverCLRCLRCLRCLRCLRCLRCLRCLRCLROVCBKNSCTSCT
FltCatVFRVFRVFRVFRVFRVFRVFRVFRMVFRIFRMVFRMVFRMVFR
WX----------------BRBRBRBRBR
WDir120120120140130140000000
WSpd3 4 6 6 5 3 0 0 0 0 0 0
WGst-- -- -- -- -- -- -- -- -- -- -- -- --
Raw hourly METARs
KCFD 200055Z AUTO 12003KT 10SM CLR 21/16 A3003 RMK AO2 T02140160
KCFD 200155Z AUTO 12004KT 10SM CLR 20/17 A3005 RMK AO2 T02020165
KCFD 200255Z AUTO 12006KT 10SM CLR 20/18 A3007 RMK AO2 T02030176
KCFD 200355Z AUTO 14006KT 10SM CLR 20/18 A3008 RMK AO2 T02030184
KCFD 200455Z AUTO 13005KT 10SM CLR 20/19 A3008 RMK AO2 T01950189
KCFD 200555Z AUTO 14003KT 10SM CLR 19/19 A3008 RMK AO2 LTG DSNT SE T01900189 10229 20190 402750123
KCFD 200655Z AUTO 00000KT 10SM CLR 18/18 A3008 RMK AO2 T01770177
KCFD 200755Z AUTO 00000KT 10SM CLR 18/18 A3008 RMK AO2 T01830183
KCFD 200855Z AUTO 00000KT 5SM BR CLR 17/17 A3008 RMK AO2 T01730173
KCFD 200955Z AUTO 00000KT 1 1/4SM BR OVC013 16/16 A3008 RMK AO2 T01590159
KCFD 201055Z AUTO 00000KT 5SM BR BKN011 16/16 A3010 RMK AO2 T01580158
KCFD 201155Z AUTO 00000KT 3SM BR SCT009 15/15 A3010 RMK AO2 T01520152 10190 20151
KCFD 201255Z AUTO 4SM BR SCT011 16/16 A3011 RMK AO2 T01560156